sensor_id;sensor_type;location;lat;lon;timestamp;P1;durP1;ratioP1;P2;durP2;ratioP2
63434;SDS011;68814;50.872;5.306;2023-06-22T00:01:49;19.58;;;5.50;;
63434;SDS011;68814;50.872;5.306;2023-06-22T00:04:14;20.75;;;5.47;;
63434;SDS011;68814;50.872;5.306;2023-06-22T00:06:40;19.88;;;5.13;;
63434;SDS011;68814;50.872;5.306;2023-06-22T00:09:06;22.27;;;5.75;;
63434;SDS011;68814;50.872;5.306;2023-06-22T00:11:35;16.05;;;4.78;;
63434;SDS011;68814;50.872;5.306;2023-06-22T00:14:01;16.05;;;4.72;;
63434;SDS011;68814;50.872;5.306;2023-06-22T00:19:13;16.00;;;4.03;;
63434;SDS011;68814;50.872;5.306;2023-06-22T00:21:44;20.35;;;5.18;;
63434;SDS011;68814;50.872;5.306;2023-06-22T00:26:56;16.45;;;4.55;;
63434;SDS011;68814;50.872;5.306;2023-06-22T00:29:21;14.15;;;4.25;;
63434;SDS011;68814;50.872;5.306;2023-06-22T00:31:47;16.52;;;4.97;;
63434;SDS011;68814;50.872;5.306;2023-06-22T00:34:12;15.70;;;4.30;;
63434;SDS011;68814;50.872;5.306;2023-06-22T00:36:38;18.33;;;4.55;;
63434;SDS011;68814;50.872;5.306;2023-06-22T00:39:05;15.85;;;4.20;;
63434;SDS011;68814;50.872;5.306;2023-06-22T00:44:17;16.50;;;4.45;;
63434;SDS011;68814;50.872;5.306;2023-06-22T00:46:43;15.32;;;4.45;;
63434;SDS011;68814;50.872;5.306;2023-06-22T00:49:09;12.13;;;4.25;;
63434;SDS011;68814;50.872;5.306;2023-06-22T00:51:35;11.75;;;3.92;;
63434;SDS011;68814;50.872;5.306;2023-06-22T00:54:03;14.73;;;3.28;;
63434;SDS011;68814;50.872;5.306;2023-06-22T00:56:30;17.05;;;3.65;;
63434;SDS011;68814;50.872;5.306;2023-06-22T00:58:57;15.10;;;4.13;;
63434;SDS011;68814;50.872;5.306;2023-06-22T01:01:24;16.30;;;4.35;;
63434;SDS011;68814;50.872;5.306;2023-06-22T01:03:50;12.10;;;3.55;;
63434;SDS011;68814;50.872;5.306;2023-06-22T01:06:35;14.88;;;3.78;;
63434;SDS011;68814;50.872;5.306;2023-06-22T01:09:25;13.02;;;3.75;;
63434;SDS011;68814;50.872;5.306;2023-06-22T01:12:05;15.70;;;3.70;;
63434;SDS011;68814;50.872;5.306;2023-06-22T01:14:38;13.35;;;3.97;;
63434;SDS011;68814;50.872;5.306;2023-06-22T01:17:15;15.10;;;4.05;;
63434;SDS011;68814;50.872;5.306;2023-06-22T01:19:45;12.25;;;3.58;;
63434;SDS011;68814;50.872;5.306;2023-06-22T01:22:17;14.13;;;3.50;;
63434;SDS011;68814;50.872;5.306;2023-06-22T01:28:16;11.35;;;3.55;;
63434;SDS011;68814;50.872;5.306;2023-06-22T01:30:40;12.73;;;3.70;;
63434;SDS011;68814;50.872;5.306;2023-06-22T01:33:07;12.85;;;3.67;;
63434;SDS011;68814;50.872;5.306;2023-06-22T01:35:36;15.23;;;3.78;;
63434;SDS011;68814;50.872;5.306;2023-06-22T01:38:02;10.07;;;3.65;;
63434;SDS011;68814;50.872;5.306;2023-06-22T01:40:28;12.88;;;3.63;;
63434;SDS011;68814;50.872;5.306;2023-06-22T01:42:56;12.98;;;3.63;;
63434;SDS011;68814;50.872;5.306;2023-06-22T01:45:22;14.52;;;4.35;;
63434;SDS011;68814;50.872;5.306;2023-06-22T01:47:49;17.65;;;4.20;;
63434;SDS011;68814;50.872;5.306;2023-06-22T01:50:15;13.95;;;4.43;;
63434;SDS011;68814;50.872;5.306;2023-06-22T01:52:41;18.33;;;4.35;;
63434;SDS011;68814;50.872;5.306;2023-06-22T01:55:07;20.75;;;4.85;;
63434;SDS011;68814;50.872;5.306;2023-06-22T01:57:34;19.17;;;4.70;;
63434;SDS011;68814;50.872;5.306;2023-06-22T02:00:02;13.90;;;4.45;;
63434;SDS011;68814;50.872;5.306;2023-06-22T02:02:40;12.88;;;4.05;;
63434;SDS011;68814;50.872;5.306;2023-06-22T02:05:13;23.98;;;5.43;;
63434;SDS011;68814;50.872;5.306;2023-06-22T02:07:45;22.02;;;5.88;;
63434;SDS011;68814;50.872;5.306;2023-06-22T02:10:15;35.25;;;8.95;;
63434;SDS011;68814;50.872;5.306;2023-06-22T02:12:44;39.92;;;9.98;;
63434;SDS011;68814;50.872;5.306;2023-06-22T02:15:11;38.60;;;9.32;;
63434;SDS011;68814;50.872;5.306;2023-06-22T02:17:37;46.72;;;10.02;;
63434;SDS011;68814;50.872;5.306;2023-06-22T02:20:03;46.22;;;9.50;;
63434;SDS011;68814;50.872;5.306;2023-06-22T02:22:33;39.88;;;9.55;;
63434;SDS011;68814;50.872;5.306;2023-06-22T02:24:59;35.42;;;8.10;;
63434;SDS011;68814;50.872;5.306;2023-06-22T02:27:25;32.50;;;8.73;;
63434;SDS011;68814;50.872;5.306;2023-06-22T02:29:50;32.92;;;8.48;;
63434;SDS011;68814;50.872;5.306;2023-06-22T02:32:16;33.08;;;8.02;;
63434;SDS011;68814;50.872;5.306;2023-06-22T02:34:42;33.05;;;7.68;;
63434;SDS011;68814;50.872;5.306;2023-06-22T02:37:12;19.83;;;6.43;;
63434;SDS011;68814;50.872;5.306;2023-06-22T02:39:39;22.60;;;6.63;;
63434;SDS011;68814;50.872;5.306;2023-06-22T02:42:05;20.98;;;6.55;;
63434;SDS011;68814;50.872;5.306;2023-06-22T02:44:31;15.90;;;5.85;;
63434;SDS011;68814;50.872;5.306;2023-06-22T02:46:56;19.55;;;6.30;;
63434;SDS011;68814;50.872;5.306;2023-06-22T02:49:23;19.75;;;6.45;;
63434;SDS011;68814;50.872;5.306;2023-06-22T02:51:49;17.67;;;6.82;;
63434;SDS011;68814;50.872;5.306;2023-06-22T02:54:15;14.05;;;6.47;;
63434;SDS011;68814;50.872;5.306;2023-06-22T02:56:41;15.75;;;6.13;;
63434;SDS011;68814;50.872;5.306;2023-06-22T02:59:09;16.13;;;6.13;;
63434;SDS011;68814;50.872;5.306;2023-06-22T03:01:36;20.45;;;7.97;;
63434;SDS011;68814;50.872;5.306;2023-06-22T03:04:08;24.40;;;8.45;;
63434;SDS011;68814;50.872;5.306;2023-06-22T03:06:34;20.65;;;7.68;;
63434;SDS011;68814;50.872;5.306;2023-06-22T03:09:04;36.35;;;10.45;;
63434;SDS011;68814;50.872;5.306;2023-06-22T03:11:30;21.17;;;8.57;;
63434;SDS011;68814;50.872;5.306;2023-06-22T03:13:57;21.58;;;9.43;;
63434;SDS011;68814;50.872;5.306;2023-06-22T03:16:23;26.27;;;9.52;;
63434;SDS011;68814;50.872;5.306;2023-06-22T03:18:48;22.92;;;9.25;;
63434;SDS011;68814;50.872;5.306;2023-06-22T03:21:14;25.00;;;9.02;;
63434;SDS011;68814;50.872;5.306;2023-06-22T03:23:40;21.52;;;8.80;;
63434;SDS011;68814;50.872;5.306;2023-06-22T03:26:08;19.98;;;8.55;;
63434;SDS011;68814;50.872;5.306;2023-06-22T03:28:34;18.00;;;9.27;;
63434;SDS011;68814;50.872;5.306;2023-06-22T03:30:59;27.00;;;10.52;;
63434;SDS011;68814;50.872;5.306;2023-06-22T03:33:25;23.45;;;9.20;;
63434;SDS011;68814;50.872;5.306;2023-06-22T03:35:51;25.67;;;10.25;;
63434;SDS011;68814;50.872;5.306;2023-06-22T03:38:16;18.02;;;10.98;;
63434;SDS011;68814;50.872;5.306;2023-06-22T03:40:42;21.98;;;10.45;;
63434;SDS011;68814;50.872;5.306;2023-06-22T03:43:08;18.40;;;10.07;;
63434;SDS011;68814;50.872;5.306;2023-06-22T03:45:34;20.73;;;10.68;;
63434;SDS011;68814;50.872;5.306;2023-06-22T03:48:00;27.33;;;11.48;;
63434;SDS011;68814;50.872;5.306;2023-06-22T03:50:26;20.08;;;10.18;;
63434;SDS011;68814;50.872;5.306;2023-06-22T03:52:52;21.88;;;11.10;;
63434;SDS011;68814;50.872;5.306;2023-06-22T03:55:19;22.55;;;11.98;;
63434;SDS011;68814;50.872;5.306;2023-06-22T03:57:45;25.33;;;11.85;;
63434;SDS011;68814;50.872;5.306;2023-06-22T04:00:11;25.75;;;11.85;;
63434;SDS011;68814;50.872;5.306;2023-06-22T04:02:37;20.38;;;11.80;;
63434;SDS011;68814;50.872;5.306;2023-06-22T04:05:03;24.48;;;11.70;;
63434;SDS011;68814;50.872;5.306;2023-06-22T04:07:29;25.17;;;10.50;;
63434;SDS011;68814;50.872;5.306;2023-06-22T04:09:55;19.70;;;9.52;;
63434;SDS011;68814;50.872;5.306;2023-06-22T04:12:20;24.13;;;10.52;;
63434;SDS011;68814;50.872;5.306;2023-06-22T04:14:46;23.70;;;11.30;;
63434;SDS011;68814;50.872;5.306;2023-06-22T04:17:11;20.08;;;9.38;;
63434;SDS011;68814;50.872;5.306;2023-06-22T04:19:39;23.73;;;10.70;;
63434;SDS011;68814;50.872;5.306;2023-06-22T04:22:05;21.15;;;10.25;;
63434;SDS011;68814;50.872;5.306;2023-06-22T04:24:32;19.13;;;8.35;;
63434;SDS011;68814;50.872;5.306;2023-06-22T04:26:58;21.13;;;9.25;;
63434;SDS011;68814;50.872;5.306;2023-06-22T04:29:27;22.60;;;10.50;;
63434;SDS011;68814;50.872;5.306;2023-06-22T04:31:56;18.02;;;10.40;;
63434;SDS011;68814;50.872;5.306;2023-06-22T04:34:28;18.23;;;11.02;;
63434;SDS011;68814;50.872;5.306;2023-06-22T04:36:54;24.13;;;11.88;;
63434;SDS011;68814;50.872;5.306;2023-06-22T04:39:20;22.42;;;12.40;;
63434;SDS011;68814;50.872;5.306;2023-06-22T04:41:46;19.70;;;11.25;;
63434;SDS011;68814;50.872;5.306;2023-06-22T04:44:12;23.10;;;12.50;;
63434;SDS011;68814;50.872;5.306;2023-06-22T04:46:53;18.17;;;12.13;;
63434;SDS011;68814;50.872;5.306;2023-06-22T04:49:27;16.55;;;10.90;;
63434;SDS011;68814;50.872;5.306;2023-06-22T04:52:03;21.30;;;13.38;;
63434;SDS011;68814;50.872;5.306;2023-06-22T04:54:31;21.30;;;12.68;;
63434;SDS011;68814;50.872;5.306;2023-06-22T04:57:04;21.00;;;13.25;;
63434;SDS011;68814;50.872;5.306;2023-06-22T04:59:35;20.73;;;12.95;;
63434;SDS011;68814;50.872;5.306;2023-06-22T05:02:04;21.17;;;12.73;;
63434;SDS011;68814;50.872;5.306;2023-06-22T05:04:31;20.13;;;13.18;;
63434;SDS011;68814;50.872;5.306;2023-06-22T05:06:57;26.70;;;16.75;;
63434;SDS011;68814;50.872;5.306;2023-06-22T05:09:23;25.95;;;17.75;;
63434;SDS011;68814;50.872;5.306;2023-06-22T05:11:50;26.40;;;18.92;;
63434;SDS011;68814;50.872;5.306;2023-06-22T05:14:16;25.98;;;18.38;;
63434;SDS011;68814;50.872;5.306;2023-06-22T05:16:43;25.52;;;17.73;;
63434;SDS011;68814;50.872;5.306;2023-06-22T05:19:09;25.70;;;18.00;;
63434;SDS011;68814;50.872;5.306;2023-06-22T05:21:35;26.50;;;18.70;;
63434;SDS011;68814;50.872;5.306;2023-06-22T05:24:01;24.58;;;17.65;;
63434;SDS011;68814;50.872;5.306;2023-06-22T05:26:28;26.20;;;19.38;;
63434;SDS011;68814;50.872;5.306;2023-06-22T05:28:55;28.55;;;19.83;;
63434;SDS011;68814;50.872;5.306;2023-06-22T05:31:21;26.85;;;18.40;;
63434;SDS011;68814;50.872;5.306;2023-06-22T05:33:47;25.40;;;19.30;;
63434;SDS011;68814;50.872;5.306;2023-06-22T05:36:14;26.30;;;19.85;;
63434;SDS011;68814;50.872;5.306;2023-06-22T05:38:40;27.63;;;19.55;;
63434;SDS011;68814;50.872;5.306;2023-06-22T05:41:06;26.27;;;19.80;;
63434;SDS011;68814;50.872;5.306;2023-06-22T05:43:32;25.88;;;19.85;;
63434;SDS011;68814;50.872;5.306;2023-06-22T05:45:59;33.78;;;21.50;;
63434;SDS011;68814;50.872;5.306;2023-06-22T05:48:26;27.15;;;20.58;;
63434;SDS011;68814;50.872;5.306;2023-06-22T05:50:52;30.38;;;21.65;;
63434;SDS011;68814;50.872;5.306;2023-06-22T05:53:18;28.83;;;21.38;;
63434;SDS011;68814;50.872;5.306;2023-06-22T05:55:43;29.17;;;20.75;;
63434;SDS011;68814;50.872;5.306;2023-06-22T05:58:09;27.33;;;21.02;;
63434;SDS011;68814;50.872;5.306;2023-06-22T06:00:35;27.73;;;21.10;;
63434;SDS011;68814;50.872;5.306;2023-06-22T06:03:01;28.00;;;19.83;;
63434;SDS011;68814;50.872;5.306;2023-06-22T06:05:30;30.27;;;22.00;;
63434;SDS011;68814;50.872;5.306;2023-06-22T06:07:56;26.25;;;19.95;;
63434;SDS011;68814;50.872;5.306;2023-06-22T06:10:21;31.88;;;22.63;;
63434;SDS011;68814;50.872;5.306;2023-06-22T06:12:47;30.80;;;22.10;;
63434;SDS011;68814;50.872;5.306;2023-06-22T06:15:13;30.70;;;21.67;;
63434;SDS011;68814;50.872;5.306;2023-06-22T06:17:45;31.13;;;21.77;;
63434;SDS011;68814;50.872;5.306;2023-06-22T06:20:11;27.15;;;21.75;;
63434;SDS011;68814;50.872;5.306;2023-06-22T06:22:37;27.88;;;20.13;;
63434;SDS011;68814;50.872;5.306;2023-06-22T06:25:03;26.30;;;19.52;;
63434;SDS011;68814;50.872;5.306;2023-06-22T06:27:29;28.33;;;20.63;;
63434;SDS011;68814;50.872;5.306;2023-06-22T06:29:56;31.10;;;21.60;;
63434;SDS011;68814;50.872;5.306;2023-06-22T06:32:21;29.77;;;20.60;;
63434;SDS011;68814;50.872;5.306;2023-06-22T06:34:47;28.98;;;19.70;;
63434;SDS011;68814;50.872;5.306;2023-06-22T06:37:12;22.35;;;18.58;;
63434;SDS011;68814;50.872;5.306;2023-06-22T06:39:38;26.42;;;19.95;;
63434;SDS011;68814;50.872;5.306;2023-06-22T06:42:04;24.83;;;19.38;;
63434;SDS011;68814;50.872;5.306;2023-06-22T06:44:30;24.92;;;20.13;;
63434;SDS011;68814;50.872;5.306;2023-06-22T06:46:56;28.10;;;20.08;;
63434;SDS011;68814;50.872;5.306;2023-06-22T06:49:21;23.08;;;17.95;;
63434;SDS011;68814;50.872;5.306;2023-06-22T06:51:47;25.52;;;20.58;;
63434;SDS011;68814;50.872;5.306;2023-06-22T06:54:12;27.77;;;20.50;;
63434;SDS011;68814;50.872;5.306;2023-06-22T06:56:38;28.70;;;20.30;;
63434;SDS011;68814;50.872;5.306;2023-06-22T06:59:03;23.33;;;18.67;;
63434;SDS011;68814;50.872;5.306;2023-06-22T07:01:29;25.65;;;19.13;;
63434;SDS011;68814;50.872;5.306;2023-06-22T07:03:58;25.80;;;18.63;;
63434;SDS011;68814;50.872;5.306;2023-06-22T07:06:25;29.58;;;18.83;;
63434;SDS011;68814;50.872;5.306;2023-06-22T07:08:54;23.10;;;18.60;;
63434;SDS011;68814;50.872;5.306;2023-06-22T07:11:20;22.90;;;17.55;;
63434;SDS011;68814;50.872;5.306;2023-06-22T07:13:46;21.63;;;17.80;;
63434;SDS011;68814;50.872;5.306;2023-06-22T07:16:11;21.02;;;16.50;;
63434;SDS011;68814;50.872;5.306;2023-06-22T07:18:39;21.35;;;15.95;;
63434;SDS011;68814;50.872;5.306;2023-06-22T07:21:05;21.55;;;16.58;;
63434;SDS011;68814;50.872;5.306;2023-06-22T07:23:31;19.05;;;15.85;;
63434;SDS011;68814;50.872;5.306;2023-06-22T07:25:57;18.83;;;15.38;;
63434;SDS011;68814;50.872;5.306;2023-06-22T07:28:26;20.90;;;15.57;;
63434;SDS011;68814;50.872;5.306;2023-06-22T07:30:52;23.55;;;16.77;;
63434;SDS011;68814;50.872;5.306;2023-06-22T07:33:18;18.67;;;15.20;;
63434;SDS011;68814;50.872;5.306;2023-06-22T07:35:44;20.27;;;16.27;;
63434;SDS011;68814;50.872;5.306;2023-06-22T07:38:11;17.85;;;14.80;;
63434;SDS011;68814;50.872;5.306;2023-06-22T07:40:37;21.55;;;15.75;;
63434;SDS011;68814;50.872;5.306;2023-06-22T07:43:03;18.15;;;14.38;;
63434;SDS011;68814;50.872;5.306;2023-06-22T07:45:29;17.27;;;14.95;;
63434;SDS011;68814;50.872;5.306;2023-06-22T07:47:54;21.33;;;15.70;;
63434;SDS011;68814;50.872;5.306;2023-06-22T07:50:20;22.52;;;16.60;;
63434;SDS011;68814;50.872;5.306;2023-06-22T07:52:46;18.50;;;16.15;;
63434;SDS011;68814;50.872;5.306;2023-06-22T07:55:13;20.38;;;15.57;;
63434;SDS011;68814;50.872;5.306;2023-06-22T07:57:38;20.38;;;15.80;;
63434;SDS011;68814;50.872;5.306;2023-06-22T08:00:06;20.95;;;16.95;;
63434;SDS011;68814;50.872;5.306;2023-06-22T08:02:40;20.52;;;15.60;;
63434;SDS011;68814;50.872;5.306;2023-06-22T08:05:07;20.77;;;17.55;;
63434;SDS011;68814;50.872;5.306;2023-06-22T08:07:34;23.05;;;17.60;;
63434;SDS011;68814;50.872;5.306;2023-06-22T08:10:03;21.58;;;16.23;;
63434;SDS011;68814;50.872;5.306;2023-06-22T08:12:29;21.08;;;15.38;;
63434;SDS011;68814;50.872;5.306;2023-06-22T08:14:55;21.60;;;16.95;;
63434;SDS011;68814;50.872;5.306;2023-06-22T08:17:22;21.58;;;15.73;;
63434;SDS011;68814;50.872;5.306;2023-06-22T08:19:48;21.27;;;17.63;;
63434;SDS011;68814;50.872;5.306;2023-06-22T08:22:14;21.05;;;18.40;;
63434;SDS011;68814;50.872;5.306;2023-06-22T08:24:40;25.27;;;15.00;;
63434;SDS011;68814;50.872;5.306;2023-06-22T08:27:06;22.58;;;17.13;;
63434;SDS011;68814;50.872;5.306;2023-06-22T08:29:34;19.25;;;15.43;;
63434;SDS011;68814;50.872;5.306;2023-06-22T08:32:00;25.55;;;16.05;;
63434;SDS011;68814;50.872;5.306;2023-06-22T08:34:26;17.17;;;14.85;;
63434;SDS011;68814;50.872;5.306;2023-06-22T08:36:52;22.08;;;16.60;;
63434;SDS011;68814;50.872;5.306;2023-06-22T08:39:21;21.17;;;16.48;;
63434;SDS011;68814;50.872;5.306;2023-06-22T08:41:47;23.02;;;17.30;;
63434;SDS011;68814;50.872;5.306;2023-06-22T08:44:13;22.65;;;16.15;;
63434;SDS011;68814;50.872;5.306;2023-06-22T08:46:39;20.45;;;16.55;;
63434;SDS011;68814;50.872;5.306;2023-06-22T08:49:05;25.50;;;17.55;;
63434;SDS011;68814;50.872;5.306;2023-06-22T08:51:32;19.73;;;16.80;;
63434;SDS011;68814;50.872;5.306;2023-06-22T08:53:57;20.35;;;14.00;;
63434;SDS011;68814;50.872;5.306;2023-06-22T08:56:23;22.27;;;17.23;;
63434;SDS011;68814;50.872;5.306;2023-06-22T08:58:49;22.58;;;15.48;;
63434;SDS011;68814;50.872;5.306;2023-06-22T09:01:14;21.75;;;14.48;;
63434;SDS011;68814;50.872;5.306;2023-06-22T09:03:42;23.17;;;14.90;;
63434;SDS011;68814;50.872;5.306;2023-06-22T09:06:08;22.85;;;17.52;;
63434;SDS011;68814;50.872;5.306;2023-06-22T09:08:34;24.25;;;18.02;;
63434;SDS011;68814;50.872;5.306;2023-06-22T09:11:01;26.17;;;17.70;;
63434;SDS011;68814;50.872;5.306;2023-06-22T09:13:28;24.02;;;16.67;;
63434;SDS011;68814;50.872;5.306;2023-06-22T09:15:55;22.88;;;17.75;;
63434;SDS011;68814;50.872;5.306;2023-06-22T09:18:20;25.15;;;17.95;;
63434;SDS011;68814;50.872;5.306;2023-06-22T09:20:46;17.98;;;15.15;;
63434;SDS011;68814;50.872;5.306;2023-06-22T09:23:12;21.05;;;16.15;;
63434;SDS011;68814;50.872;5.306;2023-06-22T09:25:37;19.02;;;14.48;;
63434;SDS011;68814;50.872;5.306;2023-06-22T09:28:03;18.65;;;15.20;;
63434;SDS011;68814;50.872;5.306;2023-06-22T09:30:29;21.15;;;17.33;;
63434;SDS011;68814;50.872;5.306;2023-06-22T09:32:54;22.05;;;18.55;;
63434;SDS011;68814;50.872;5.306;2023-06-22T09:35:20;19.65;;;14.60;;
63434;SDS011;68814;50.872;5.306;2023-06-22T09:37:45;18.50;;;15.77;;
63434;SDS011;68814;50.872;5.306;2023-06-22T09:40:11;19.00;;;14.60;;
63434;SDS011;68814;50.872;5.306;2023-06-22T09:42:38;19.95;;;14.48;;
63434;SDS011;68814;50.872;5.306;2023-06-22T09:45:04;22.70;;;18.45;;
63434;SDS011;68814;50.872;5.306;2023-06-22T09:47:30;20.50;;;15.45;;
63434;SDS011;68814;50.872;5.306;2023-06-22T09:49:56;18.92;;;15.05;;
63434;SDS011;68814;50.872;5.306;2023-06-22T09:52:24;19.02;;;15.25;;
63434;SDS011;68814;50.872;5.306;2023-06-22T09:54:49;25.27;;;19.95;;
63434;SDS011;68814;50.872;5.306;2023-06-22T09:57:15;20.95;;;17.42;;
63434;SDS011;68814;50.872;5.306;2023-06-22T09:59:40;24.88;;;18.60;;
63434;SDS011;68814;50.872;5.306;2023-06-22T10:02:06;22.15;;;18.92;;
63434;SDS011;68814;50.872;5.306;2023-06-22T10:04:33;21.95;;;17.80;;
63434;SDS011;68814;50.872;5.306;2023-06-22T10:06:59;21.73;;;16.83;;
63434;SDS011;68814;50.872;5.306;2023-06-22T10:09:24;22.55;;;19.10;;
63434;SDS011;68814;50.872;5.306;2023-06-22T10:11:50;30.80;;;22.13;;
63434;SDS011;68814;50.872;5.306;2023-06-22T10:14:16;28.35;;;19.00;;
63434;SDS011;68814;50.872;5.306;2023-06-22T10:16:42;28.23;;;20.75;;
63434;SDS011;68814;50.872;5.306;2023-06-22T10:19:07;29.48;;;22.60;;
63434;SDS011;68814;50.872;5.306;2023-06-22T10:21:33;33.97;;;26.05;;
63434;SDS011;68814;50.872;5.306;2023-06-22T10:23:59;64.70;;;25.20;;
63434;SDS011;68814;50.872;5.306;2023-06-22T10:26:31;45.88;;;25.05;;
63434;SDS011;68814;50.872;5.306;2023-06-22T10:28:57;41.40;;;23.88;;
63434;SDS011;68814;50.872;5.306;2023-06-22T10:31:23;37.70;;;24.15;;
63434;SDS011;68814;50.872;5.306;2023-06-22T10:33:49;31.90;;;26.55;;
63434;SDS011;68814;50.872;5.306;2023-06-22T10:36:15;35.55;;;27.50;;
63434;SDS011;68814;50.872;5.306;2023-06-22T10:38:40;37.80;;;27.30;;
63434;SDS011;68814;50.872;5.306;2023-06-22T10:41:06;35.88;;;29.17;;
63434;SDS011;68814;50.872;5.306;2023-06-22T10:43:31;38.30;;;29.20;;
63434;SDS011;68814;50.872;5.306;2023-06-22T10:45:57;38.25;;;30.23;;
63434;SDS011;68814;50.872;5.306;2023-06-22T10:48:23;35.17;;;28.70;;
63434;SDS011;68814;50.872;5.306;2023-06-22T10:50:49;34.75;;;29.30;;
63434;SDS011;68814;50.872;5.306;2023-06-22T10:53:14;34.63;;;27.33;;
63434;SDS011;68814;50.872;5.306;2023-06-22T10:55:40;34.83;;;28.35;;
63434;SDS011;68814;50.872;5.306;2023-06-22T10:58:07;35.70;;;28.38;;
63434;SDS011;68814;50.872;5.306;2023-06-22T11:00:32;34.75;;;26.70;;
63434;SDS011;68814;50.872;5.306;2023-06-22T11:02:58;33.75;;;26.98;;
63434;SDS011;68814;50.872;5.306;2023-06-22T11:05:24;33.80;;;26.30;;
63434;SDS011;68814;50.872;5.306;2023-06-22T11:07:49;32.47;;;24.90;;
63434;SDS011;68814;50.872;5.306;2023-06-22T11:10:15;35.38;;;28.88;;
63434;SDS011;68814;50.872;5.306;2023-06-22T11:12:41;35.35;;;28.73;;
63434;SDS011;68814;50.872;5.306;2023-06-22T11:15:08;37.28;;;30.20;;
63434;SDS011;68814;50.872;5.306;2023-06-22T11:17:34;41.35;;;31.77;;
63434;SDS011;68814;50.872;5.306;2023-06-22T11:20:00;38.15;;;30.60;;
63434;SDS011;68814;50.872;5.306;2023-06-22T11:22:26;42.95;;;34.42;;
63434;SDS011;68814;50.872;5.306;2023-06-22T11:24:52;40.15;;;31.60;;
63434;SDS011;68814;50.872;5.306;2023-06-22T11:27:17;38.65;;;32.80;;
63434;SDS011;68814;50.872;5.306;2023-06-22T11:29:43;39.85;;;33.60;;
63434;SDS011;68814;50.872;5.306;2023-06-22T11:32:09;35.38;;;28.60;;
63434;SDS011;68814;50.872;5.306;2023-06-22T11:37:00;45.50;;;32.80;;
63434;SDS011;68814;50.872;5.306;2023-06-22T11:39:26;35.03;;;31.20;;
63434;SDS011;68814;50.872;5.306;2023-06-22T11:41:51;41.78;;;31.73;;
63434;SDS011;68814;50.872;5.306;2023-06-22T11:44:17;36.10;;;31.13;;
63434;SDS011;68814;50.872;5.306;2023-06-22T11:46:43;36.35;;;30.52;;
63434;SDS011;68814;50.872;5.306;2023-06-22T11:49:09;39.25;;;31.40;;
63434;SDS011;68814;50.872;5.306;2023-06-22T11:51:34;31.00;;;27.02;;
63434;SDS011;68814;50.872;5.306;2023-06-22T11:54:00;37.92;;;30.95;;
63434;SDS011;68814;50.872;5.306;2023-06-22T11:56:26;36.63;;;30.30;;
63434;SDS011;68814;50.872;5.306;2023-06-22T11:58:52;36.72;;;30.92;;
63434;SDS011;68814;50.872;5.306;2023-06-22T12:01:19;32.20;;;27.75;;
63434;SDS011;68814;50.872;5.306;2023-06-22T12:03:44;36.78;;;32.38;;
63434;SDS011;68814;50.872;5.306;2023-06-22T12:06:10;39.83;;;32.90;;
63434;SDS011;68814;50.872;5.306;2023-06-22T12:08:36;40.42;;;33.15;;
63434;SDS011;68814;50.872;5.306;2023-06-22T12:11:02;40.13;;;32.38;;
63434;SDS011;68814;50.872;5.306;2023-06-22T12:13:28;35.70;;;30.75;;
63434;SDS011;68814;50.872;5.306;2023-06-22T12:15:53;39.72;;;31.55;;
63434;SDS011;68814;50.872;5.306;2023-06-22T12:18:19;42.95;;;33.67;;
63434;SDS011;68814;50.872;5.306;2023-06-22T12:20:46;40.08;;;32.33;;
63434;SDS011;68814;50.872;5.306;2023-06-22T12:23:12;42.42;;;35.30;;
63434;SDS011;68814;50.872;5.306;2023-06-22T12:25:37;44.17;;;34.50;;
63434;SDS011;68814;50.872;5.306;2023-06-22T12:28:03;45.78;;;34.28;;
63434;SDS011;68814;50.872;5.306;2023-06-22T12:30:29;43.10;;;35.13;;
63434;SDS011;68814;50.872;5.306;2023-06-22T12:32:55;45.75;;;36.03;;
63434;SDS011;68814;50.872;5.306;2023-06-22T12:35:21;43.75;;;35.00;;
63434;SDS011;68814;50.872;5.306;2023-06-22T12:37:47;41.70;;;35.03;;
63434;SDS011;68814;50.872;5.306;2023-06-22T12:40:12;44.30;;;35.45;;
63434;SDS011;68814;50.872;5.306;2023-06-22T12:42:38;52.22;;;39.97;;
63434;SDS011;68814;50.872;5.306;2023-06-22T12:45:04;48.55;;;37.28;;
63434;SDS011;68814;50.872;5.306;2023-06-22T12:47:30;44.67;;;36.13;;
63434;SDS011;68814;50.872;5.306;2023-06-22T12:49:56;44.72;;;36.50;;
63434;SDS011;68814;50.872;5.306;2023-06-22T12:52:22;47.83;;;38.10;;
63434;SDS011;68814;50.872;5.306;2023-06-22T12:54:48;48.90;;;38.38;;
63434;SDS011;68814;50.872;5.306;2023-06-22T12:57:13;59.63;;;42.47;;
63434;SDS011;68814;50.872;5.306;2023-06-22T12:59:39;53.72;;;41.20;;
63434;SDS011;68814;50.872;5.306;2023-06-22T13:02:05;57.50;;;40.78;;
63434;SDS011;68814;50.872;5.306;2023-06-22T13:04:30;55.95;;;40.30;;
63434;SDS011;68814;50.872;5.306;2023-06-22T13:06:56;56.17;;;42.20;;
63434;SDS011;68814;50.872;5.306;2023-06-22T13:09:22;56.00;;;41.22;;
63434;SDS011;68814;50.872;5.306;2023-06-22T13:11:47;57.30;;;40.50;;
63434;SDS011;68814;50.872;5.306;2023-06-22T13:14:13;53.72;;;41.67;;
63434;SDS011;68814;50.872;5.306;2023-06-22T13:16:41;52.88;;;41.33;;
63434;SDS011;68814;50.872;5.306;2023-06-22T13:19:06;55.70;;;41.80;;
63434;SDS011;68814;50.872;5.306;2023-06-22T13:21:32;52.15;;;40.55;;
63434;SDS011;68814;50.872;5.306;2023-06-22T13:23:59;52.42;;;38.83;;
63434;SDS011;68814;50.872;5.306;2023-06-22T13:26:25;48.63;;;37.42;;
63434;SDS011;68814;50.872;5.306;2023-06-22T13:28:50;50.38;;;37.95;;
63434;SDS011;68814;50.872;5.306;2023-06-22T13:31:16;48.30;;;36.25;;
63434;SDS011;68814;50.872;5.306;2023-06-22T13:33:42;47.80;;;37.50;;
63434;SDS011;68814;50.872;5.306;2023-06-22T13:36:09;44.38;;;34.08;;
63434;SDS011;68814;50.872;5.306;2023-06-22T13:38:35;43.67;;;32.53;;
63434;SDS011;68814;50.872;5.306;2023-06-22T13:41:03;39.63;;;30.98;;
63434;SDS011;68814;50.872;5.306;2023-06-22T13:43:29;44.45;;;31.30;;
63434;SDS011;68814;50.872;5.306;2023-06-22T13:45:54;35.67;;;28.88;;
63434;SDS011;68814;50.872;5.306;2023-06-22T13:48:20;43.17;;;29.33;;
63434;SDS011;68814;50.872;5.306;2023-06-22T13:50:48;41.00;;;27.77;;
63434;SDS011;68814;50.872;5.306;2023-06-22T13:53:13;42.15;;;29.30;;
63434;SDS011;68814;50.872;5.306;2023-06-22T13:55:39;43.50;;;29.83;;
63434;SDS011;68814;50.872;5.306;2023-06-22T13:58:05;45.80;;;32.10;;
63434;SDS011;68814;50.872;5.306;2023-06-22T14:00:31;40.80;;;29.27;;
63434;SDS011;68814;50.872;5.306;2023-06-22T14:02:57;41.13;;;29.77;;
63434;SDS011;68814;50.872;5.306;2023-06-22T14:05:23;44.83;;;30.88;;
63434;SDS011;68814;50.872;5.306;2023-06-22T14:07:48;42.03;;;31.38;;
63434;SDS011;68814;50.872;5.306;2023-06-22T14:10:14;43.67;;;33.17;;
63434;SDS011;68814;50.872;5.306;2023-06-22T14:12:40;46.80;;;33.13;;
63434;SDS011;68814;50.872;5.306;2023-06-22T14:15:05;41.13;;;31.05;;
63434;SDS011;68814;50.872;5.306;2023-06-22T14:17:31;41.08;;;31.27;;
63434;SDS011;68814;50.872;5.306;2023-06-22T14:19:57;46.67;;;34.72;;
63434;SDS011;68814;50.872;5.306;2023-06-22T14:22:22;47.58;;;34.40;;
63434;SDS011;68814;50.872;5.306;2023-06-22T14:24:48;49.70;;;34.80;;
63434;SDS011;68814;50.872;5.306;2023-06-22T14:27:14;42.65;;;32.38;;
63434;SDS011;68814;50.872;5.306;2023-06-22T14:29:43;41.42;;;32.55;;
63434;SDS011;68814;50.872;5.306;2023-06-22T14:32:09;46.60;;;34.83;;
63434;SDS011;68814;50.872;5.306;2023-06-22T14:34:35;49.67;;;36.17;;